createdAt,value
2022-10-17T00:00:42.670Z,67.80
2022-10-17T00:03:10.358Z,67.87
2022-10-17T00:05:41.995Z,67.49
2022-10-17T00:08:09.893Z,67.63
2022-10-17T00:10:37.576Z,68.09
2022-10-17T00:13:05.053Z,67.90
2022-10-17T00:15:32.938Z,67.46
2022-10-17T00:18:00.106Z,67.85
2022-10-17T00:20:27.314Z,67.62
2022-10-17T00:22:54.834Z,67.85
2022-10-17T00:25:22.043Z,67.49
2022-10-17T00:27:49.133Z,67.67
2022-10-17T00:30:17.222Z,68.75
2022-10-17T00:32:44.436Z,68.99
2022-10-17T00:35:11.824Z,69.30
2022-10-17T00:37:39.253Z,69.33
2022-10-17T00:40:07.107Z,68.81
2022-10-17T00:42:34.245Z,69.44
2022-10-17T00:45:19.232Z,69.50
2022-10-17T00:47:49.140Z,70.12
2022-10-17T00:50:17.736Z,71.38
2022-10-17T00:52:46.062Z,71.13
2022-10-17T00:55:39.573Z,70.43
2022-10-17T00:58:06.967Z,71.36
2022-10-17T01:00:37.060Z,70.83
2022-10-17T01:03:04.545Z,69.53
2022-10-17T01:05:32.407Z,69.85
2022-10-17T01:07:59.766Z,69.33
2022-10-17T01:10:30.063Z,69.88
2022-10-17T01:13:06.227Z,70.06
2022-10-17T01:15:33.306Z,69.88
2022-10-17T01:18:06.958Z,68.89
2022-10-17T01:20:40.144Z,68.76
2022-10-17T01:23:13.577Z,68.70
2022-10-17T01:25:44.172Z,69.03
2022-10-17T01:28:20.090Z,68.98
2022-10-17T01:30:50.298Z,69.04
2022-10-17T01:33:38.078Z,68.75
2022-10-17T01:36:10.506Z,70.47
2022-10-17T01:38:53.264Z,69.72
2022-10-17T01:41:39.263Z,69.77
2022-10-17T01:44:39.286Z,70.20
2022-10-17T01:47:11.968Z,70.64
2022-10-17T01:49:41.145Z,70.09
2022-10-17T01:52:14.665Z,69.43
2022-10-17T01:54:47.796Z,69.66
2022-10-17T01:57:35.254Z,69.23
2022-10-17T02:00:04.911Z,68.57
2022-10-17T02:02:40.355Z,69.14
2022-10-17T02:05:08.604Z,69.11
2022-10-17T02:07:35.742Z,69.14
2022-10-17T02:10:04.660Z,69.14
2022-10-17T02:12:45.825Z,69.08
2022-10-17T02:15:23.769Z,69.56
2022-10-17T02:18:01.135Z,69.08
2022-10-17T02:20:34.306Z,69.28
2022-10-17T02:23:14.002Z,69.80
2022-10-17T02:25:49.156Z,70.09
2022-10-17T02:28:31.685Z,70.05
2022-10-17T02:31:20.358Z,69.25
2022-10-17T02:33:51.775Z,69.13
2022-10-17T02:36:22.600Z,70.13
2022-10-17T02:38:52.872Z,71.34
2022-10-17T02:41:21.531Z,70.48
2022-10-17T02:43:49.968Z,70.19
2022-10-17T02:46:21.343Z,70.38
2022-10-17T02:48:53.703Z,69.95
2022-10-17T02:51:22.001Z,70.72
2022-10-17T02:54:10.065Z,71.58
2022-10-17T02:56:43.108Z,71.94
2022-10-17T02:59:12.514Z,75.35
2022-10-17T03:01:39.766Z,73.62
2022-10-17T03:04:11.185Z,73.39
2022-10-17T03:06:39.240Z,74.11
2022-10-17T03:09:08.105Z,74.02
2022-10-17T03:11:35.320Z,73.43
2022-10-17T03:14:02.829Z,72.75
2022-10-17T03:16:29.984Z,72.65
2022-10-17T03:18:57.160Z,72.30
2022-10-17T03:21:24.628Z,71.83
2022-10-17T03:23:52.101Z,71.26
2022-10-17T03:26:19.706Z,71.05
2022-10-17T03:28:50.658Z,70.74
2022-10-17T03:31:21.062Z,69.99
2022-10-17T03:33:48.991Z,70.27
2022-10-17T03:36:17.446Z,70.39
2022-10-17T03:38:44.991Z,71.18
2022-10-17T03:41:13.140Z,71.76
2022-10-17T03:43:40.231Z,71.88
2022-10-17T03:46:08.333Z,72.02
2022-10-17T03:48:36.996Z,70.96
2022-10-17T03:51:05.706Z,71.07
2022-10-17T03:53:33.702Z,71.56
2022-10-17T03:56:11.391Z,71.57
2022-10-17T03:58:38.868Z,71.29
2022-10-17T04:01:07.541Z,71.50
2022-10-17T04:03:35.124Z,71.56
2022-10-17T04:06:03.071Z,71.19
2022-10-17T04:08:31.905Z,71.31
2022-10-17T04:11:04.937Z,71.68
2022-10-17T04:13:32.279Z,71.69
2022-10-17T04:16:01.328Z,71.82
2022-10-17T04:18:29.306Z,71.32
2022-10-17T04:20:56.671Z,71.94
2022-10-17T04:23:24.101Z,72.47
2022-10-17T04:25:55.594Z,73.24
2022-10-17T04:28:23.982Z,72.89
2022-10-17T04:31:02.421Z,74.18
2022-10-17T04:33:31.591Z,74.49
2022-10-17T04:36:00.152Z,73.20
2022-10-17T04:38:28.703Z,73.17
2022-10-17T04:41:03.691Z,73.50
2022-10-17T04:43:32.224Z,75.30
2022-10-17T04:46:00.225Z,76.09
2022-10-17T04:48:28.239Z,76.02
2022-10-17T04:50:57.079Z,74.61
2022-10-17T04:53:25.445Z,74.29
2022-10-17T04:55:52.661Z,74.30
2022-10-17T04:58:20.837Z,73.98
2022-10-17T05:00:48.432Z,73.57
2022-10-17T05:03:16.964Z,73.14
2022-10-17T05:05:44.651Z,72.96
2022-10-17T05:08:12.690Z,72.62
2022-10-17T05:10:41.073Z,73.04
2022-10-17T05:13:09.223Z,73.01
2022-10-17T05:15:37.183Z,72.95
2022-10-17T05:18:04.744Z,73.09
2022-10-17T05:20:32.794Z,73.49
2022-10-17T05:23:00.530Z,73.49
2022-10-17T05:25:29.028Z,74.20
2022-10-17T05:27:56.461Z,73.83
2022-10-17T05:30:23.596Z,73.11
2022-10-17T05:32:54.971Z,73.45
2022-10-17T05:35:23.685Z,73.41
2022-10-17T05:37:52.230Z,72.77
2022-10-17T05:40:20.258Z,73.34
2022-10-17T05:42:49.642Z,74.44
2022-10-17T05:45:17.899Z,75.18
2022-10-17T05:47:46.241Z,74.58
2022-10-17T05:50:13.951Z,75.15
2022-10-17T05:52:45.081Z,75.79
2022-10-17T05:55:15.426Z,76.80
2022-10-17T05:57:42.549Z,75.05
2022-10-17T06:00:10.705Z,75.33
2022-10-17T06:02:41.310Z,77.08
2022-10-17T06:05:09.383Z,77.33
2022-10-17T06:07:36.867Z,76.58
2022-10-17T06:10:05.030Z,76.14
2022-10-17T06:12:32.683Z,76.11
2022-10-17T06:14:59.904Z,75.91
2022-10-17T06:17:28.326Z,76.07
2022-10-17T06:19:57.281Z,76.23
2022-10-17T06:22:24.533Z,76.90
2022-10-17T06:24:53.869Z,77.16
2022-10-17T06:27:21.570Z,77.20
2022-10-17T06:29:48.978Z,75.80
2022-10-17T06:32:17.290Z,75.07
2022-10-17T06:34:45.211Z,76.92
2022-10-17T06:37:12.358Z,77.33
2022-10-17T06:39:39.780Z,77.96
2022-10-17T06:42:07.848Z,77.75
2022-10-17T06:44:36.292Z,79.98
2022-10-17T06:47:09.788Z,80.10
2022-10-17T06:49:37.224Z,80.44
2022-10-17T06:52:04.630Z,80.44
2022-10-17T06:54:32.636Z,80.72
2022-10-17T06:57:01.111Z,81.22
2022-10-17T06:59:28.831Z,81.70
2022-10-17T07:01:56.655Z,81.98
2022-10-17T07:04:24.010Z,83.11
2022-10-17T07:06:51.265Z,82.48
2022-10-17T07:09:19.134Z,83.21
2022-10-17T07:11:46.469Z,82.23
2022-10-17T07:14:16.469Z,82.55
2022-10-17T07:16:44.162Z,81.47
2022-10-17T07:19:12.144Z,82.57
2022-10-17T07:21:39.619Z,82.04
2022-10-17T07:24:07.713Z,82.94
2022-10-17T07:26:35.001Z,82.17
2022-10-17T07:29:02.569Z,80.66
2022-10-17T07:31:30.192Z,77.74
2022-10-17T07:33:59.305Z,76.25
2022-10-17T07:36:26.666Z,74.52
2022-10-17T07:38:54.892Z,73.55
2022-10-17T07:41:22.239Z,73.64
2022-10-17T07:43:49.621Z,74.32
2022-10-17T07:46:18.949Z,74.32
2022-10-17T07:48:46.248Z,72.61
2022-10-17T07:51:13.470Z,72.61
2022-10-17T07:53:46.442Z,72.05
2022-10-17T07:56:15.970Z,69.81
2022-10-17T07:58:43.427Z,69.30
2022-10-17T08:01:16.219Z,68.80
2022-10-17T08:03:44.526Z,68.71
2022-10-17T08:06:12.067Z,67.38
2022-10-17T08:08:39.193Z,67.91
2022-10-17T08:11:08.012Z,66.30
2022-10-17T08:13:35.627Z,64.26
2022-10-17T08:16:03.655Z,64.23
2022-10-17T08:18:31.163Z,64.24
2022-10-17T08:21:02.209Z,63.97
2022-10-17T08:23:29.333Z,65.32
2022-10-17T08:25:59.209Z,65.33
2022-10-17T08:28:26.330Z,63.91
2022-10-17T08:30:53.490Z,63.03
2022-10-17T08:33:20.902Z,58.87
2022-10-17T08:35:48.322Z,57.76
2022-10-17T08:38:17.806Z,56.37
2022-10-17T08:40:49.210Z,53.82
2022-10-17T08:43:31.233Z,57.11
2022-10-17T08:46:03.763Z,53.57
2022-10-17T08:48:37.362Z,55.23
2022-10-17T08:51:13.332Z,52.00
2022-10-17T08:53:44.035Z,49.69
2022-10-17T08:56:44.093Z,48.14
2022-10-17T08:59:33.617Z,46.74
2022-10-17T09:02:13.564Z,45.58
2022-10-17T09:04:49.894Z,39.71
2022-10-17T09:07:21.117Z,40.21
2022-10-17T09:09:57.470Z,38.28
2022-10-17T09:12:29.287Z,37.32
2022-10-17T09:15:02.711Z,38.64
2022-10-17T09:17:37.329Z,39.67
2022-10-17T09:20:19.815Z,38.16
2022-10-17T09:23:10.203Z,38.07
2022-10-17T09:25:47.682Z,37.07
2022-10-17T09:28:21.327Z,36.02
2022-10-17T09:30:58.333Z,36.26
2022-10-17T09:34:00.219Z,35.53
2022-10-17T09:36:32.966Z,35.17
2022-10-17T09:39:02.213Z,34.94
2022-10-17T09:41:46.846Z,34.46
2022-10-17T09:44:18.075Z,33.63
2022-10-17T09:46:52.407Z,31.42
2022-10-17T09:49:23.652Z,31.42
2022-10-17T09:51:51.091Z,32.67
2022-10-17T09:54:26.784Z,30.75
2022-10-17T09:57:02.008Z,31.35
2022-10-17T09:59:34.276Z,31.77
2022-10-17T10:02:09.219Z,31.28
2022-10-17T10:04:59.655Z,30.78
2022-10-17T10:07:29.106Z,28.37
2022-10-17T10:09:57.312Z,28.55
2022-10-17T10:12:29.721Z,27.55
2022-10-17T10:14:58.041Z,25.31
2022-10-17T10:17:43.287Z,24.91
2022-10-17T10:20:37.457Z,25.35
2022-10-17T10:23:24.740Z,24.85
2022-10-17T10:26:20.935Z,26.13
2022-10-17T10:29:02.257Z,24.27
2022-10-17T10:31:31.903Z,21.39
2022-10-17T10:34:00.465Z,23.91
2022-10-17T10:36:42.368Z,23.32
2022-10-17T10:39:12.512Z,22.75
2022-10-17T10:41:46.727Z,22.36
2022-10-17T10:44:15.599Z,22.34
2022-10-17T10:46:42.697Z,23.15
2022-10-17T10:49:29.009Z,24.17
2022-10-17T10:51:58.825Z,22.37
2022-10-17T10:54:29.997Z,23.57
2022-10-17T10:56:59.981Z,23.84
2022-10-17T10:59:39.852Z,23.66
2022-10-17T11:02:07.586Z,23.04
2022-10-17T11:04:38.372Z,23.14
2022-10-17T11:07:10.433Z,23.41
2022-10-17T11:09:38.127Z,24.65
2022-10-17T11:12:13.595Z,24.13
2022-10-17T11:14:45.119Z,24.46
2022-10-17T11:17:32.663Z,24.31
2022-10-17T11:20:03.306Z,24.57
2022-10-17T11:22:37.643Z,23.86
2022-10-17T11:25:24.201Z,24.62
2022-10-17T11:27:51.426Z,23.94
2022-10-17T11:30:19.040Z,23.45
2022-10-17T11:32:53.954Z,22.58
2022-10-17T11:35:25.239Z,22.51
2022-10-17T11:38:14.066Z,22.80
2022-10-17T11:40:44.686Z,22.43
2022-10-17T11:43:20.582Z,22.06
2022-10-17T11:45:55.669Z,22.09
2022-10-17T11:48:32.025Z,21.50
2022-10-17T11:54:09.447Z,20.43
2022-10-17T11:56:41.809Z,20.57
2022-10-17T11:59:29.898Z,20.63
2022-10-17T12:02:01.747Z,20.87
2022-10-17T12:04:43.774Z,21.08
2022-10-17T12:07:22.473Z,20.29
2022-10-17T12:09:53.401Z,19.84
2022-10-17T12:12:40.586Z,19.97
2022-10-17T12:15:14.000Z,20.04
2022-10-17T12:17:43.985Z,20.15
2022-10-17T12:20:17.552Z,19.54
2022-10-17T12:22:48.434Z,19.18
2022-10-17T12:25:22.458Z,19.21
2022-10-17T12:27:50.524Z,19.04
2022-10-17T12:30:19.970Z,18.76
2022-10-17T12:33:21.989Z,18.42
2022-10-17T12:35:51.192Z,18.22
2022-10-17T12:38:18.300Z,19.76
2022-10-17T12:40:49.095Z,18.84
2022-10-17T12:43:16.664Z,19.26
2022-10-17T12:45:51.728Z,19.46
2022-10-17T12:48:34.626Z,19.57
2022-10-17T12:51:35.782Z,18.78
2022-10-17T12:54:01.659Z,19.15
2022-10-17T12:57:01.512Z,19.61
2022-10-17T12:59:29.583Z,19.70
2022-10-17T13:01:59.971Z,19.57
2022-10-17T13:04:28.335Z,19.86
2022-10-17T13:06:57.252Z,20.31
2022-10-17T13:09:35.526Z,20.68
2022-10-17T13:12:04.836Z,19.68
2022-10-17T13:14:33.479Z,20.12
2022-10-17T13:17:01.836Z,20.66
2022-10-17T13:19:30.883Z,19.65
2022-10-17T13:22:06.390Z,20.33
2022-10-17T13:24:38.534Z,20.60
2022-10-17T13:27:06.934Z,20.80
2022-10-17T13:29:34.519Z,20.12
2022-10-17T13:32:04.127Z,20.51
2022-10-17T13:34:31.972Z,21.13
2022-10-17T13:37:01.568Z,21.74
2022-10-17T13:42:29.620Z,21.21
2022-10-17T13:44:57.963Z,20.79
2022-10-17T13:47:27.595Z,19.74
2022-10-17T13:49:55.751Z,20.45
2022-10-17T13:52:27.051Z,19.44
2022-10-17T13:54:56.128Z,18.93
2022-10-17T13:57:25.205Z,19.55
2022-10-17T13:59:59.978Z,18.82
2022-10-17T14:02:29.120Z,18.68
2022-10-17T14:05:18.178Z,17.63
2022-10-17T14:08:09.840Z,19.37
2022-10-17T14:10:35.480Z,17.23
2022-10-17T14:13:04.549Z,18.82
2022-10-17T14:15:33.948Z,18.41
2022-10-17T14:18:07.537Z,18.13
2022-10-17T14:23:36.509Z,17.06
2022-10-17T14:26:08.591Z,15.82
2022-10-17T14:28:36.824Z,15.16
2022-10-17T14:31:14.313Z,15.25
2022-10-17T14:33:50.525Z,14.39
2022-10-17T14:36:19.651Z,14.65
2022-10-17T14:38:48.370Z,15.04
2022-10-17T14:44:08.488Z,16.28
2022-10-17T14:46:36.219Z,18.10
2022-10-17T14:49:19.430Z,19.31
2022-10-17T14:52:11.406Z,21.04
2022-10-17T14:54:40.782Z,22.00
2022-10-17T14:57:17.195Z,23.09
2022-10-17T14:59:59.659Z,23.83
2022-10-17T15:02:28.754Z,24.86
2022-10-17T15:04:56.320Z,24.14
2022-10-17T15:07:24.081Z,24.08
2022-10-17T15:09:52.673Z,24.09
2022-10-17T15:12:21.618Z,26.68
2022-10-17T15:14:49.293Z,29.27
2022-10-17T15:17:20.834Z,28.90
2022-10-17T15:19:48.398Z,29.72
2022-10-17T15:22:18.585Z,32.14
2022-10-17T15:24:46.467Z,31.73
2022-10-17T15:27:18.143Z,31.24
2022-10-17T15:29:45.913Z,32.68
2022-10-17T15:32:13.513Z,34.74
2022-10-17T15:34:41.312Z,33.95
2022-10-17T15:37:15.605Z,35.13
2022-10-17T15:39:42.728Z,34.77
2022-10-17T15:42:11.798Z,35.44
2022-10-17T15:44:40.546Z,36.68
2022-10-17T15:47:11.295Z,37.53
2022-10-17T15:49:38.772Z,37.12
2022-10-17T15:52:08.792Z,36.64
2022-10-17T15:54:36.650Z,37.63
2022-10-17T15:57:04.250Z,39.20
2022-10-17T15:59:32.621Z,40.23
2022-10-17T16:01:59.895Z,40.37
2022-10-17T16:04:29.225Z,40.56
2022-10-17T16:06:56.315Z,39.73
2022-10-17T16:09:23.563Z,39.93
2022-10-17T16:11:51.089Z,39.22
2022-10-17T16:14:18.377Z,40.57
2022-10-17T16:16:45.633Z,39.66
2022-10-17T16:19:13.131Z,40.49
2022-10-17T16:21:41.031Z,40.81
2022-10-17T16:24:10.663Z,41.33
2022-10-17T16:26:39.044Z,42.47
2022-10-17T16:29:06.237Z,41.35
2022-10-17T16:31:34.798Z,42.14
2022-10-17T16:34:03.200Z,41.85
2022-10-17T16:36:30.389Z,42.09
2022-10-17T16:38:57.802Z,42.10
2022-10-17T16:41:26.617Z,42.36
2022-10-17T16:43:54.790Z,43.60
2022-10-17T16:46:22.468Z,43.42
2022-10-17T16:48:50.402Z,43.68
2022-10-17T16:51:18.928Z,44.33
2022-10-17T16:53:46.768Z,44.00
2022-10-17T16:56:15.318Z,44.49
2022-10-17T16:58:42.922Z,44.41
2022-10-17T17:01:15.274Z,43.96
2022-10-17T17:03:43.765Z,44.04
2022-10-17T17:06:15.934Z,45.34
2022-10-17T17:08:43.792Z,46.09
2022-10-17T17:11:13.847Z,47.04
2022-10-17T17:13:42.803Z,47.64
2022-10-17T17:16:14.936Z,47.79
2022-10-17T17:18:42.226Z,47.46
2022-10-17T17:21:10.707Z,47.63
2022-10-17T17:23:39.588Z,48.10
2022-10-17T17:26:07.982Z,48.43
2022-10-17T17:28:35.864Z,48.07
2022-10-17T17:31:02.987Z,48.43
2022-10-17T17:33:30.350Z,47.73
2022-10-17T17:35:58.947Z,47.88
2022-10-17T17:38:28.424Z,48.41
2022-10-17T17:40:56.728Z,48.79
2022-10-17T17:43:25.149Z,49.76
2022-10-17T17:45:52.250Z,49.57
2022-10-17T17:48:19.462Z,49.60
2022-10-17T17:50:47.238Z,49.57
2022-10-17T17:53:15.395Z,49.14
2022-10-17T17:55:42.583Z,49.36
2022-10-17T17:58:11.336Z,49.84
2022-10-17T18:00:38.853Z,49.68
2022-10-17T18:03:06.787Z,49.73
2022-10-17T18:05:37.112Z,50.66
2022-10-17T18:08:06.779Z,51.63
2022-10-17T18:10:34.242Z,52.39
2022-10-17T18:13:01.373Z,51.88
2022-10-17T18:15:28.535Z,51.49
2022-10-17T18:17:55.924Z,51.44
2022-10-17T18:20:23.201Z,50.93
2022-10-17T18:22:50.211Z,52.18
2022-10-17T18:25:17.616Z,52.74
2022-10-17T18:27:44.694Z,52.67
2022-10-17T18:30:11.932Z,54.85
2022-10-17T18:32:40.835Z,53.71
2022-10-17T18:35:08.093Z,53.37
2022-10-17T18:37:35.205Z,53.38
2022-10-17T18:40:03.287Z,54.19
2022-10-17T18:42:30.777Z,54.36
2022-10-17T18:44:58.030Z,53.88
2022-10-17T18:47:25.452Z,54.44
2022-10-17T18:49:52.584Z,54.83
2022-10-17T18:52:19.747Z,54.35
2022-10-17T18:54:47.139Z,54.22
2022-10-17T18:57:14.264Z,55.39
2022-10-17T18:59:41.385Z,55.60
2022-10-17T19:02:13.009Z,55.47
2022-10-17T19:04:40.499Z,55.88
2022-10-17T19:07:07.624Z,56.18
2022-10-17T19:09:35.431Z,55.80
2022-10-17T19:12:02.492Z,55.89
2022-10-17T19:14:30.682Z,54.95
2022-10-17T19:16:59.797Z,55.23
2022-10-17T19:19:27.144Z,55.38
2022-10-17T19:21:54.315Z,55.51
2022-10-17T19:24:22.822Z,56.47
2022-10-17T19:26:50.972Z,57.08
2022-10-17T19:29:18.388Z,57.65
2022-10-17T19:31:46.687Z,57.41
2022-10-17T19:34:14.201Z,57.55
2022-10-17T19:36:41.856Z,57.03
2022-10-17T19:39:14.331Z,57.73
2022-10-17T19:41:42.413Z,57.76
2022-10-17T19:44:10.250Z,57.97
2022-10-17T19:46:37.357Z,56.95
2022-10-17T19:49:04.985Z,57.26
2022-10-17T19:51:32.868Z,56.92
2022-10-17T19:54:00.793Z,57.71
2022-10-17T19:56:29.080Z,57.95
2022-10-17T19:58:57.242Z,58.76
2022-10-17T20:01:29.414Z,58.27
2022-10-17T20:03:57.134Z,58.33
2022-10-17T20:06:24.784Z,58.42
2022-10-17T20:08:51.845Z,57.78
2022-10-17T20:11:20.747Z,57.72
2022-10-17T20:27:27.870Z,60.13
2022-10-17T20:29:55.719Z,60.16
2022-10-17T20:32:22.816Z,60.73
2022-10-17T20:34:49.957Z,59.78
2022-10-17T20:37:17.354Z,60.73
2022-10-17T20:39:44.556Z,60.78
2022-10-17T20:42:11.592Z,60.51
2022-10-17T20:44:39.105Z,60.37
2022-10-17T20:47:15.966Z,61.25
2022-10-17T20:49:43.826Z,61.74
2022-10-17T20:52:11.398Z,61.94
2022-10-17T20:54:38.603Z,61.68
2022-10-17T20:57:06.828Z,62.19
2022-10-17T20:59:36.205Z,61.76
2022-10-17T21:02:03.961Z,61.11
2022-10-17T21:04:47.484Z,61.73
2022-10-17T21:07:14.984Z,61.63
2022-10-17T21:09:42.466Z,61.71
2022-10-17T21:12:09.758Z,62.34
2022-10-17T21:14:36.841Z,61.63
2022-10-17T21:17:05.506Z,60.82
2022-10-17T21:19:32.818Z,61.06
2022-10-17T21:32:55.619Z,60.78
2022-10-17T21:35:23.436Z,62.48
2022-10-17T21:37:51.275Z,62.68
2022-10-17T21:40:18.475Z,62.04
2022-10-17T21:42:45.891Z,62.29
2022-10-17T21:45:15.872Z,61.88
2022-10-17T21:48:11.567Z,62.43
2022-10-17T21:50:39.524Z,63.61
2022-10-17T21:53:06.886Z,63.89
2022-10-17T21:55:35.959Z,63.36
2022-10-17T21:58:03.808Z,63.07
2022-10-17T22:00:31.161Z,63.50
2022-10-17T22:02:58.542Z,62.70
2022-10-17T22:05:25.633Z,62.40
2022-10-17T22:07:52.749Z,62.41
2022-10-17T22:10:20.144Z,62.53
2022-10-17T22:12:47.357Z,63.57
2022-10-17T22:17:46.817Z,63.02
2022-10-17T22:20:14.218Z,62.33
2022-10-17T22:22:41.334Z,62.68
2022-10-17T22:25:09.007Z,62.61
2022-10-17T22:27:36.112Z,61.76
2022-10-17T22:30:03.862Z,61.66
2022-10-17T22:32:31.275Z,63.26
2022-10-17T22:34:58.362Z,63.24
2022-10-17T22:37:25.457Z,64.99
2022-10-17T22:39:52.962Z,64.19
2022-10-17T22:42:20.039Z,64.80
2022-10-17T22:44:47.899Z,65.61
2022-10-17T22:47:15.393Z,65.68
2022-10-17T22:49:42.458Z,66.06
2022-10-17T22:52:09.733Z,65.80
2022-10-17T22:54:37.135Z,65.46
2022-10-17T22:57:05.362Z,65.17
2022-10-17T22:59:33.520Z,64.76
2022-10-17T23:02:00.995Z,64.66
2022-10-17T23:04:28.118Z,64.17
2022-10-17T23:06:55.201Z,64.22
2022-10-17T23:09:22.686Z,64.43
2022-10-17T23:11:49.786Z,64.57
2022-10-17T23:14:17.478Z,64.43
2022-10-17T23:16:44.914Z,66.07
2022-10-17T23:19:12.017Z,66.15
2022-10-17T23:21:39.118Z,68.22
2022-10-17T23:24:06.771Z,67.21
2022-10-17T23:26:33.887Z,67.81
2022-10-17T23:29:01.080Z,66.65
2022-10-17T23:31:28.585Z,65.75
2022-10-17T23:33:55.693Z,66.27
2022-10-17T23:36:22.951Z,66.04
2022-10-17T23:38:52.658Z,65.59
2022-10-17T23:41:22.188Z,65.55
2022-10-17T23:43:49.334Z,65.66
2022-10-17T23:46:17.106Z,65.67
2022-10-17T23:48:44.196Z,64.86
2022-10-17T23:51:11.533Z,64.98
2022-10-17T23:53:39.501Z,65.90
2022-10-17T23:56:07.936Z,67.50
2022-10-17T23:58:35.090Z,66.08
